Time;durP1;ratioP1;P1;durP2;ratioP2;P2;SDS_P1;SDS_P2;PMS_P1;PMS_P2;Temp;Humidity;BMP_temperature;BMP_pressure;BME280_temperature;BME280_humidity;BME280_pressure;Samples;Min_cycle;Max_cycle;Signal;HPM_P1;HPM_P2
2022/01/24 00:00:40;;;;;;;2.53;1.73;;;10.00;61.00;;;8.36;65.23;103070.53;8481497;27;20119;-82
2022/01/24 00:05:02;;;;;;;1.48;1.30;;;10.00;61.00;;;8.19;65.36;103037.72;8464659;27;20555;-82
2022/01/24 00:09:23;;;;;;;1.73;1.60;;;10.00;61.00;;;8.29;65.53;103056.72;8446491;28;20118;-82
2022/01/24 00:18:29;;;;;;;1.52;1.40;;;10.00;60.90;;;8.24;65.22;103045.50;8455714;28;20034;-82
2022/01/24 00:27:31;;;;;;;1.67;1.58;;;10.00;60.90;;;8.27;65.26;103055.88;8462794;27;20115;-82
2022/01/24 00:38:52;;;;;;;2.00;1.80;;;9.90;61.10;;;8.29;65.25;103069.75;8459272;27;20039;-82
2022/01/24 00:53:59;;;;;;;2.75;2.20;;;9.90;61.00;;;8.12;65.25;103035.16;8465807;27;20122;-82
2022/01/24 00:58:20;;;;;;;1.77;1.67;;;9.90;61.70;;;8.18;65.10;103046.41;8447910;27;20522;-82
2022/01/24 01:02:42;;;;;;;2.22;1.88;;;9.80;60.90;;;8.11;65.37;103034.31;8458209;27;20111;-82
2022/01/24 01:07:06;;;;;;;2.05;1.92;;;9.90;61.10;;;8.25;65.14;103057.63;8435543;27;20118;-82
2022/01/24 01:21:11;;;;;;;2.90;2.67;;;9.90;61.00;;;8.20;65.14;103048.97;8467556;27;20540;-82
2022/01/24 01:25:33;;;;;;;3.10;2.58;;;9.80;60.90;;;8.26;65.16;103054.13;8465291;28;20115;-82
2022/01/24 01:30:06;;;;;;;3.00;2.55;;;9.90;61.00;;;8.26;65.30;103053.25;8473245;28;20437;-83
2022/01/24 01:34:55;;;;;;;2.92;2.63;;;9.80;60.90;;;8.25;65.27;103047.19;8455267;28;20449;-82
2022/01/24 01:57:55;;;;;;;3.53;3.03;;;9.80;61.00;;;8.27;65.26;103058.47;8451916;28;20492;-82
2022/01/24 02:02:16;;;;;;;3.47;3.17;;;9.90;61.10;;;8.28;65.12;103047.16;8475262;28;20484;-82
2022/01/24 02:06:38;;;;;;;3.10;2.80;;;9.90;61.20;;;8.26;65.48;103050.66;8462692;28;20122;-82
2022/01/24 02:11:00;;;;;;;3.58;3.22;;;9.90;61.20;;;8.26;64.98;103048.91;8470001;27;20114;-82
2022/01/24 02:15:31;;;;;;;3.10;2.78;;;9.90;61.10;;;8.19;65.48;103029.03;8442820;27;20119;-82
2022/01/24 02:24:18;;;;;;;3.78;3.25;;;9.90;61.10;;;8.25;65.18;103028.97;8455519;27;20149;-82
2022/01/24 02:29:01;;;;;;;3.80;3.05;;;9.90;61.10;;;8.10;65.26;103003.06;8468456;27;20570;-82
2022/01/24 02:33:24;;;;;;;4.22;3.25;;;9.80;61.00;;;8.21;65.30;103022.09;8457099;27;20110;-82
2022/01/24 02:37:46;;;;;;;4.53;3.80;;;9.70;61.00;;;8.10;65.31;103006.56;8452564;27;20102;-82
2022/01/24 02:51:45;;;;;;;4.35;3.40;;;9.90;61.20;;;8.26;65.47;103032.44;8481632;27;20463;-82
2022/01/24 02:56:07;;;;;;;5.05;3.38;;;9.80;61.10;;;8.28;65.69;103039.38;8464934;27;20122;-82
2022/01/24 03:00:29;;;;;;;4.82;3.95;;;9.90;61.20;;;8.26;65.57;103038.50;8463952;27;20563;-82
2022/01/24 03:04:54;;;;;;;5.18;3.83;;;9.90;61.20;;;8.22;65.46;103021.19;8465589;27;20131;-83
2022/01/24 03:09:17;;;;;;;4.82;3.28;;;9.90;61.20;;;8.28;65.42;103028.94;8455466;28;20567;-82
2022/01/24 03:13:38;;;;;;;5.53;3.85;;;9.90;61.30;;;8.14;65.45;102996.97;8480408;27;20118;-82
2022/01/24 03:18:00;;;;;;;3.53;3.20;;;9.80;61.10;;;8.30;65.65;103027.22;8440605;27;20114;-82
2022/01/24 03:22:22;;;;;;;4.05;3.40;;;9.80;61.20;;;8.29;65.28;103028.09;8480690;27;20095;-82
2022/01/24 03:26:44;;;;;;;4.13;2.92;;;9.90;61.30;;;8.31;65.63;103026.31;8474037;27;20114;-83
2022/01/24 03:31:06;;;;;;;4.93;3.25;;;9.90;61.30;;;8.26;65.38;103007.28;8466468;27;20562;-83
2022/01/24 03:35:27;;;;;;;4.53;3.67;;;9.90;61.30;;;8.15;65.69;102990.88;8461404;27;20114;-82
2022/01/24 03:39:49;;;;;;;4.43;3.45;;;9.90;61.30;;;8.30;65.59;103016.78;8461437;28;20043;-82
2022/01/24 03:44:13;;;;;;;3.63;3.00;;;9.80;61.20;;;8.24;65.54;103014.25;8471544;27;20131;-81
2022/01/24 03:48:45;;;;;;;3.53;2.88;;;9.90;61.30;;;8.24;65.45;103009.03;8455765;28;20591;-82
2022/01/24 03:53:07;;;;;;;3.33;2.85;;;9.90;61.30;;;8.32;65.43;103029.81;8465569;27;20118;-82
2022/01/24 03:57:29;;;;;;;3.10;2.70;;;9.90;61.20;;;8.19;65.36;103010.81;8450116;28;20114;-82
2022/01/24 04:01:50;;;;;;;3.90;3.25;;;9.90;61.20;;;8.25;65.53;103020.31;8436216;28;20054;-82
2022/01/24 04:06:14;;;;;;;4.03;3.42;;;9.90;61.30;;;8.25;65.45;103026.38;8458752;27;20103;-83
2022/01/24 04:10:46;;;;;;;4.60;2.92;;;9.80;61.30;;;8.19;65.46;103018.63;8445892;27;20114;-82
2022/01/24 04:24:20;;;;;;;3.17;2.65;;;9.90;61.50;;;8.15;65.34;103016.91;8469319;27;20106;-83
2022/01/24 04:28:42;;;;;;;3.35;3.00;;;9.80;61.50;;;8.07;65.46;103006.56;8438250;27;20114;-83
2022/01/24 04:33:03;;;;;;;4.40;2.75;;;9.80;61.60;;;8.07;65.75;103000.50;8480409;27;20118;-83
2022/01/24 04:37:25;;;;;;;2.35;2.15;;;9.80;61.60;;;8.21;65.74;103016.88;8452495;28;20463;-83
2022/01/24 04:41:50;;;;;;;2.85;2.17;;;9.70;61.60;;;8.14;65.62;103016.06;8474964;27;20115;-83
2022/01/24 04:46:43;;;;;;;3.67;2.60;;;9.80;61.80;;;8.22;65.66;103023.81;8453568;27;20118;-83
2022/01/24 04:51:13;;;;;;;3.28;2.33;;;9.80;61.80;;;8.24;65.53;103026.41;8449807;27;20126;-84
2022/01/24 04:55:35;;;;;;;3.28;2.10;;;9.90;61.90;;;8.10;65.62;103014.38;8458054;27;20107;-83
2022/01/24 05:00:00;;;;;;;5.25;2.72;;;9.80;61.70;;;8.23;65.70;103041.13;8455258;27;20039;-84
2022/01/24 05:04:22;;;;;;;3.47;2.67;;;9.80;61.90;;;8.25;65.84;103042.00;8444782;27;20555;-83
2022/01/24 05:08:43;;;;;;;2.38;2.13;;;9.80;61.80;;;8.18;65.43;103033.38;8470069;27;20114;-83
2022/01/24 05:27:06;;;;;;;3.03;2.45;;;9.90;62.00;;;8.24;65.53;103042.88;8474026;28;20102;-83
2022/01/24 05:31:28;;;;;;;3.08;2.70;;;9.90;61.90;;;8.31;65.55;103051.50;8430217;28;20118;-83
2022/01/24 05:35:50;;;;;;;3.20;2.83;;;9.90;62.00;;;8.24;65.74;103042.88;8475755;28;20295;-83
2022/01/24 05:40:12;;;;;;;3.28;2.85;;;9.90;61.90;;;8.16;65.48;103036.88;8453444;28;20407;-83
2022/01/24 05:44:33;;;;;;;2.95;2.70;;;9.90;61.90;;;8.11;65.69;103020.44;8469932;28;20110;-83
2022/01/24 05:48:55;;;;;;;3.85;3.30;;;9.90;61.90;;;8.24;65.64;103050.69;8458167;27;20470;-83
2022/01/24 05:53:17;;;;;;;3.05;2.75;;;9.90;61.80;;;8.27;66.03;103058.47;8464983;28;20564;-83
2022/01/24 05:57:39;;;;;;;3.67;3.13;;;9.80;61.70;;;8.27;65.72;103055.00;8465190;28;20118;-83
2022/01/24 06:02:01;;;;;;;4.65;3.38;;;9.90;61.90;;;8.29;65.68;103055.84;8452432;27;20118;-83
2022/01/24 06:06:22;;;;;;;3.67;3.25;;;9.90;61.90;;;8.26;65.74;103048.91;8470660;27;20114;-83
2022/01/24 06:10:46;;;;;;;4.32;3.28;;;9.90;61.90;;;8.19;65.72;103036.84;8466481;27;20550;-83
2022/01/24 06:15:08;;;;;;;3.55;3.22;;;10.00;62.00;;;8.18;65.92;103041.19;8454888;27;20138;-82
2022/01/24 06:19:30;;;;;;;4.30;3.63;;;10.00;62.00;;;8.33;65.63;103065.38;8482181;27;20468;-82
2022/01/24 06:23:51;;;;;;;4.90;3.95;;;10.00;61.90;;;8.30;65.60;103060.19;8459917;27;20114;-83
2022/01/24 06:28:13;;;;;;;4.32;3.67;;;9.90;61.80;;;8.30;66.01;103060.19;8462442;27;20130;-83
2022/01/24 06:32:36;;;;;;;4.65;3.55;;;10.00;61.90;;;8.36;65.75;103076.59;8450564;27;20114;-82
2022/01/24 06:36:58;;;;;;;4.80;3.75;;;9.90;62.60;;;8.21;65.45;103050.72;8454783;27;20547;-83
2022/01/24 06:41:31;;;;;;;4.32;3.45;;;9.90;61.80;;;8.34;65.84;103078.34;8460439;27;20118;-82
2022/01/24 06:45:53;;;;;;;5.30;4.53;;;10.00;61.80;;;8.37;65.72;103082.66;8479746;27;20189;-83
2022/01/24 06:50:14;;;;;;;4.28;3.70;;;9.90;61.60;;;8.29;65.87;103074.06;8452172;27;20137;-83
2022/01/24 06:54:39;;;;;;;5.93;4.45;;;10.00;61.80;;;8.33;65.66;103094.84;8485431;27;20113;-82
2022/01/24 06:59:01;;;;;;;5.57;4.30;;;9.90;61.80;;;8.28;65.79;103083.63;8426219;27;20046;-82
2022/01/24 07:03:26;;;;;;;6.82;3.90;;;10.00;61.90;;;8.35;65.74;103095.72;8445450;27;20031;-82
2022/01/24 07:07:48;;;;;;;8.00;4.20;;;10.00;61.90;;;8.24;65.68;103089.72;8434179;28;20035;-83
2022/01/24 07:12:10;;;;;;;6.88;4.65;;;10.00;61.90;;;8.35;65.38;103113.09;8440136;28;20347;-83
2022/01/24 07:16:49;;;;;;;6.05;4.38;;;9.90;61.80;;;8.26;65.81;103103.56;8454873;27;20038;-83
2022/01/24 07:21:11;;;;;;;4.57;3.90;;;9.90;61.90;;;8.32;65.64;103121.78;8460808;27;20031;-83
2022/01/24 07:25:33;;;;;;;5.25;4.07;;;9.90;61.80;;;8.25;65.73;103104.47;8432039;27;20034;-83
2022/01/24 07:29:54;;;;;;;5.43;4.63;;;9.90;61.90;;;8.23;65.60;103107.94;8444018;27;20115;-83
2022/01/24 07:34:17;;;;;;;4.70;4.15;;;9.90;61.90;;;8.27;65.91;103118.34;8421323;27;20143;-83
2022/01/24 07:38:38;;;;;;;5.57;4.82;;;9.90;61.90;;;8.32;65.43;103113.13;8433345;28;20115;-83
2022/01/24 07:43:15;;;;;;;6.43;4.95;;;9.80;61.90;;;8.24;65.75;103107.09;8427594;27;20127;-83
2022/01/24 07:47:37;;;;;;;5.93;4.75;;;9.90;61.90;;;8.27;65.63;103115.75;8435098;27;20575;-84
2022/01/24 07:51:59;;;;;;;5.28;4.47;;;9.80;61.90;;;8.29;65.73;103116.59;8437440;27;20118;-84
2022/01/24 07:56:21;;;;;;;6.63;4.40;;;9.90;62.00;;;8.22;65.75;103114.91;8429674;28;20028;-83
2022/01/24 08:00:43;;;;;;;5.32;4.47;;;9.80;62.00;;;8.11;65.90;103095.91;8444682;28;20056;-84
2022/01/24 08:05:06;;;;;;;4.15;3.80;;;9.80;62.10;;;8.19;65.63;103128.81;8429933;28;20111;-83
2022/01/24 08:09:28;;;;;;;4.13;3.72;;;9.90;62.20;;;8.27;66.04;103139.16;8452440;27;20543;-83
2022/01/24 08:13:51;;;;;;;4.15;3.78;;;9.80;62.20;;;8.23;65.84;103131.38;8446428;27;20034;-81
2022/01/24 08:18:14;;;;;;;4.93;4.05;;;9.80;62.20;;;8.26;65.74;103136.56;8433838;27;20118;-81
2022/01/24 08:22:37;;;;;;;5.75;4.00;;;9.80;62.40;;;8.13;65.69;103109.78;8435908;27;20040;-83
2022/01/24 08:26:59;;;;;;;5.35;4.13;;;9.70;62.20;;;8.31;66.01;103147.81;8432076;27;20489;-82
2022/01/24 08:31:21;;;;;;;6.53;5.25;;;9.80;62.30;;;8.32;65.54;103140.00;8430300;27;20047;-82
2022/01/24 08:35:42;;;;;;;6.32;4.57;;;9.90;62.40;;;8.20;66.04;103127.91;8445650;27;20407;-82
2022/01/24 08:40:08;;;;;;;4.70;4.05;;;9.90;62.40;;;7.94;65.88;103075.19;8435283;27;20035;-82
2022/01/24 08:49:00;;;;;;;3.80;3.40;;;9.90;62.40;;;8.33;65.95;103146.94;8447576;27;20041;-82
2022/01/24 08:53:23;;;;;;;5.03;3.70;;;9.90;62.50;;;8.20;65.88;103119.25;8446349;27;20050;-83
2022/01/24 08:57:45;;;;;;;3.40;3.10;;;10.00;62.60;;;8.30;65.94;103128.72;8471187;27;20895;-83
2022/01/24 09:02:08;;;;;;;4.20;3.65;;;10.00;62.50;;;8.43;65.87;103150.38;8445698;27;20043;-83
2022/01/24 09:06:30;;;;;;;9.93;4.55;;;10.00;62.50;;;8.46;66.00;103146.88;8436755;28;20027;-83
2022/01/24 09:10:52;;;;;;;3.90;3.30;;;10.00;62.50;;;8.44;65.69;103136.47;8449578;27;20039;-82
2022/01/24 09:15:14;;;;;;;3.88;3.13;;;10.40;62.80;;;8.30;66.23;103110.50;8452686;27;20050;-81
2022/01/24 09:19:36;;;;;;;4.00;3.20;;;10.00;62.50;;;8.49;66.29;103137.31;8445519;27;20035;-81
2022/01/24 09:23:58;;;;;;;4.65;3.50;;;10.00;62.40;;;8.49;65.77;103133.84;8434781;27;20035;-81
2022/01/24 09:28:20;;;;;;;3.97;3.40;;;10.10;62.60;;;8.44;65.99;103114.78;8418678;28;20039;-81
2022/01/24 09:32:42;;;;;;;3.67;3.38;;;10.10;62.60;;;8.45;65.99;103117.34;8438296;28;20390;-81
2022/01/24 09:37:04;;;;;;;4.47;3.88;;;9.90;62.50;;;8.52;65.86;103123.41;8440404;28;20044;-81
2022/01/24 09:41:26;;;;;;;4.00;3.38;;;10.10;62.60;;;8.40;66.00;103088.78;8455964;28;20031;-81
2022/01/24 09:45:47;;;;;;;3.63;3.33;;;10.20;62.80;;;8.54;66.24;103116.44;8424942;28;20028;-83
2022/01/24 09:50:13;;;;;;;3.60;3.20;;;10.20;62.90;;;8.64;65.94;103126.78;8438584;28;20048;-81
2022/01/24 09:54:35;;;;;;;3.92;3.40;;;10.20;63.00;;;8.64;66.07;103118.06;8446497;28;20046;-82
2022/01/24 09:58:57;;;;;;;3.95;3.20;;;10.10;63.10;;;8.53;66.12;103093.88;8457963;28;20041;-83
2022/01/24 10:03:18;;;;;;;3.38;3.08;;;10.30;63.00;;;8.66;66.22;103121.53;8452010;28;20039;-83
2022/01/24 10:07:40;;;;;;;3.70;2.90;;;10.20;63.10;;;8.62;66.05;103110.28;8457131;28;20038;-83
2022/01/24 10:12:29;;;;;;;3.30;2.75;;;10.30;63.00;;;8.51;65.85;103073.06;8450622;28;20058;-82
2022/01/24 10:16:55;;;;;;;3.30;2.97;;;10.30;62.90;;;8.75;66.00;103115.38;8458890;28;20570;-83
2022/01/24 10:21:17;;;;;;;2.60;2.40;;;10.50;62.80;;;8.68;65.95;103100.69;8441332;28;20042;-82
2022/01/24 10:25:59;;;;;;;3.25;2.83;;;10.30;62.60;;;8.69;66.23;103105.88;8462496;28;20042;-82
2022/01/24 10:30:21;;;;;;;2.25;2.05;;;10.30;62.70;;;8.68;66.30;103085.06;8462214;28;20043;-82
2022/01/24 10:34:43;;;;;;;3.00;2.75;;;10.40;62.60;;;8.83;65.86;103100.53;8459583;27;20034;-83
2022/01/24 10:39:12;;;;;;;3.70;2.65;;;10.40;62.70;;;8.80;66.00;103092.75;8460666;27;20069;-82
2022/01/24 10:43:35;;;;;;;3.25;2.80;;;10.40;62.70;;;8.77;66.25;103072.81;8446347;27;20043;-82
2022/01/24 10:47:57;;;;;;;3.05;2.75;;;10.40;63.30;;;8.89;66.01;103084.00;8464990;27;20411;-82
2022/01/24 10:52:28;;;;;;;3.80;3.35;;;10.40;62.60;;;8.86;66.42;103071.88;8453504;27;20031;-82
2022/01/24 10:56:53;;;;;;;3.80;3.40;;;10.50;62.90;;;8.94;66.40;103075.25;8448953;27;20032;-83
2022/01/24 11:01:15;;;;;;;3.27;2.97;;;10.50;63.00;;;9.01;66.07;103078.66;8457543;27;20047;-83
2022/01/24 11:05:39;;;;;;;4.45;3.35;;;10.60;63.70;;;9.06;66.25;103071.66;8454724;27;20027;-82
2022/01/24 11:10:04;;;;;;;3.95;3.25;;;10.50;63.00;;;9.01;65.98;103056.06;8441335;27;20066;-83
2022/01/24 11:14:27;;;;;;;3.88;2.78;;;10.70;62.90;;;9.09;66.35;103069.00;8459036;27;20042;-82
2022/01/24 11:18:50;;;;;;;3.13;2.70;;;10.70;62.50;;;9.13;65.94;103065.50;8434194;27;20886;-82
2022/01/24 11:23:12;;;;;;;2.92;2.60;;;10.70;62.50;;;9.02;65.82;103042.16;8468763;27;20054;-82
2022/01/24 11:27:37;;;;;;;2.13;1.83;;;10.70;62.30;;;9.16;66.12;103062.00;8457806;27;20031;-82
2022/01/24 11:32:19;;;;;;;2.20;2.00;;;10.70;62.20;;;9.08;66.01;103046.44;8441648;27;20043;-82
2022/01/24 11:36:43;;;;;;;1.60;1.50;;;10.70;62.20;;;9.15;65.89;103048.06;8449816;27;20046;-82
2022/01/24 11:41:32;;;;;;;1.48;1.38;;;10.80;61.90;;;9.12;66.16;103055.06;8469408;27;20041;-81
2022/01/24 11:46:07;;;;;;;1.73;1.20;;;10.70;61.50;;;9.04;66.21;103044.72;8463009;27;20076;-82
2022/01/24 11:50:37;;;;;;;1.13;1.02;;;10.70;61.40;;;9.06;66.32;103037.75;8474674;27;20499;-83
2022/01/24 11:59:28;;;;;;;0.80;0.80;;;10.40;60.90;;;9.09;66.01;103055.97;8436828;27;20039;-81
2022/01/24 12:03:52;;;;;;;1.25;1.17;;;10.70;61.10;;;9.08;65.95;103052.50;8440046;27;20038;-82
2022/01/24 12:08:33;;;;;;;1.17;1.08;;;10.70;61.10;;;8.98;65.78;103032.63;8449295;27;20054;-84
2022/01/24 12:12:55;;;;;;;0.88;0.88;;;10.60;61.00;;;9.08;65.88;103043.81;8405503;28;20046;-83
2022/01/24 12:17:51;;;;;;;0.73;0.73;;;10.50;60.80;;;8.85;65.39;103002.38;8427223;27;20053;-83
2022/01/24 12:22:35;;;;;;;0.90;0.73;;;10.60;60.60;;;8.99;65.66;103023.06;8437256;27;20069;-82
2022/01/24 12:27:04;;;;;;;0.70;0.70;;;10.50;60.40;;;8.96;65.63;103023.09;8453109;27;20039;-83
2022/01/24 12:31:30;;;;;;;1.00;0.75;;;10.50;60.20;;;8.98;65.61;103031.78;8451383;27;20024;-83
2022/01/24 12:35:52;;;;;;;1.00;1.00;;;10.60;60.20;;;8.89;65.71;103018.88;8464436;27;20043;-82
2022/01/24 12:40:27;;;;;;;1.00;1.00;;;10.50;60.10;;;8.79;65.80;102998.09;8464418;27;20073;-82
2022/01/24 12:49:11;;;;;;;1.30;1.20;;;10.40;60.10;;;8.76;65.68;102992.94;8448948;27;20031;-82
2022/01/24 12:53:39;;;;;;;2.67;2.30;;;10.40;60.10;;;8.86;65.65;103009.34;8435587;27;20039;-82
2022/01/24 12:58:00;;;;;;;2.20;2.00;;;10.50;60.10;;;8.86;65.61;103011.94;8460093;27;20049;-82
2022/01/24 13:02:26;;;;;;;2.00;1.77;;;10.30;60.00;;;8.91;65.49;103017.97;8454789;27;20046;-82
2022/01/24 13:06:47;;;;;;;2.08;1.90;;;10.40;60.10;;;8.85;65.66;103008.44;8466978;27;20038;-82
2022/01/24 13:11:10;;;;;;;1.70;1.60;;;10.40;60.10;;;8.85;65.65;103008.44;8460744;27;20047;-82
2022/01/24 13:25:30;;;;;;;3.60;2.10;;;10.40;60.20;;;8.85;65.37;103012.81;8453366;27;20039;-82
2022/01/24 13:29:53;;;;;;;2.10;1.90;;;10.40;60.10;;;8.85;65.29;103021.47;8458406;27;20520;-83
2022/01/24 13:34:19;;;;;;;2.08;1.95;;;10.40;60.10;;;8.85;65.59;103033.66;8441522;27;20062;-82
2022/01/24 13:38:45;;;;;;;1.95;1.80;;;10.30;59.90;;;8.79;65.52;103012.88;8429275;28;20042;-81
2022/01/24 13:43:10;;;;;;;3.10;1.67;;;10.40;60.10;;;8.80;65.27;103015.47;8458289;28;20048;-82
2022/01/24 13:47:33;;;;;;;1.50;1.40;;;10.40;60.10;;;8.67;65.17;103002.56;8436193;28;20384;-82
2022/01/24 13:51:54;;;;;;;1.65;1.25;;;10.30;60.00;;;8.78;65.60;103022.44;8443673;28;20407;-82
2022/01/24 13:56:32;;;;;;;1.60;1.20;;;10.30;59.90;;;8.57;65.39;102989.66;8440352;28;20040;-82
2022/01/24 14:01:00;;;;;;;1.63;1.48;;;10.30;60.00;;;8.72;65.22;103019.91;8432164;28;20031;-82
2022/01/24 14:05:22;;;;;;;1.80;1.70;;;10.30;60.00;;;8.74;65.41;103036.38;8453673;28;20046;-82
2022/01/24 14:09:46;;;;;;;1.25;1.23;;;10.30;60.70;;;8.72;65.32;103030.34;8440457;27;20039;-82
2022/01/24 14:14:13;;;;;;;5.32;1.60;;;10.20;60.00;;;8.67;65.24;103013.00;8453119;27;20425;-82
2022/01/24 14:18:34;;;;;;;1.90;1.80;;;10.20;60.00;;;8.66;65.38;103025.16;8468708;27;20033;-82
2022/01/24 14:22:56;;;;;;;2.35;1.92;;;10.20;60.10;;;8.61;65.22;103016.53;8433699;28;20043;-82
2022/01/24 14:27:43;;;;;;;2.20;2.03;;;10.00;60.00;;;8.56;65.30;103016.59;8461417;27;20037;-82
2022/01/24 14:32:11;;;;;;;2.72;1.92;;;10.10;60.20;;;8.06;65.29;102931.13;8462061;27;20044;-82
2022/01/24 14:36:36;;;;;;;6.07;2.92;;;10.10;60.20;;;8.50;65.22;103018.38;8451444;28;20043;-82
2022/01/24 14:41:02;;;;;;;2.40;2.20;;;9.90;60.20;;;8.43;65.39;103003.72;8444286;28;20035;-82
2022/01/24 14:45:23;;;;;;;2.75;2.55;;;10.00;60.40;;;8.33;65.21;102979.47;8423984;27;20023;-82
2022/01/24 14:49:45;;;;;;;1.73;1.63;;;9.90;60.50;;;8.34;65.46;102983.78;8424923;28;20031;-84
2022/01/24 14:54:11;;;;;;;3.47;2.00;;;9.90;60.70;;;8.36;65.51;102993.31;8454869;27;20042;-80
2022/01/24 14:58:32;;;;;;;3.22;2.92;;;10.00;60.80;;;8.32;65.46;102986.41;8435572;28;20044;-80
2022/01/24 15:02:55;;;;;;;2.25;2.05;;;10.00;60.80;;;8.45;65.32;103009.75;8443144;27;20053;-80
2022/01/24 15:07:16;;;;;;;2.08;1.85;;;10.00;60.80;;;8.42;65.17;103005.44;8454074;27;20480;-83
2022/01/24 15:11:41;;;;;;;2.63;1.80;;;10.00;60.80;;;8.53;65.51;103015.75;8471068;27;20568;-81
2022/01/24 15:16:13;;;;;;;2.30;2.10;;;10.00;60.80;;;8.46;65.38;102998.47;8452997;27;20059;-80
2022/01/24 15:25:25;;;;;;;1.80;1.70;;;9.90;60.80;;;8.39;65.19;102984.63;8434004;28;20038;-81
2022/01/24 15:29:47;;;;;;;2.40;2.08;;;10.10;60.90;;;8.44;65.48;102990.66;8428681;28;20040;-80
2022/01/24 15:34:09;;;;;;;2.42;2.00;;;10.00;60.80;;;8.55;65.39;103016.59;8451818;28;20550;-80
2022/01/24 15:38:30;;;;;;;2.90;2.65;;;10.00;60.80;;;8.41;65.37;102990.69;8454655;28;20046;-80
2022/01/24 15:51:52;;;;;;;2.65;2.42;;;10.00;60.70;;;8.39;65.37;102989.84;8437035;27;20045;-80
2022/01/24 15:57:39;;;;;;;2.88;2.58;;;10.10;60.90;;;8.53;65.61;103014.03;8447303;22;20050;-80
2022/01/24 16:00:55;;;;;;;3.10;2.80;;;10.10;60.90;;;8.50;65.54;103005.34;8290743;28;20061;-79
2022/01/24 16:05:21;;;;;;;2.63;2.35;;;10.10;60.90;;;8.53;65.71;103018.34;8292157;22;20044;-80
2022/01/24 16:09:43;;;;;;;3.42;2.60;;;10.10;60.80;;;8.54;65.36;103017.50;8337792;28;20664;-81
2022/01/24 16:14:08;;;;;;;3.78;2.92;;;10.00;60.60;;;8.42;65.21;103010.63;8381572;28;20048;-80
2022/01/24 16:18:31;;;;;;;4.30;2.85;;;10.10;60.60;;;8.51;65.31;103025.34;8378608;28;20404;-80
2022/01/24 16:27:20;;;;;;;4.07;3.28;;;10.00;60.60;;;8.53;65.57;103023.56;8394921;28;20390;-80
2022/01/24 16:31:42;;;;;;;4.28;3.83;;;10.10;60.60;;;8.45;65.40;103015.81;8397588;28;20039;-81
2022/01/24 16:36:11;;;;;;;4.15;3.65;;;10.00;60.40;;;8.41;65.47;103014.97;8412353;28;20044;-80
2022/01/24 16:40:45;;;;;;;3.35;3.00;;;10.00;60.40;;;8.38;65.33;103020.19;8384173;28;20493;-81
2022/01/24 16:47:02;;;;;;;5.00;3.92;;;10.00;60.50;;;8.28;65.29;103002.91;8398213;28;20044;-80
2022/01/24 16:49:50;;;;;;;5.00;3.47;;;9.90;60.50;;;8.29;65.58;103006.38;8389585;28;20029;-80
2022/01/24 16:54:12;;;;;;;4.30;3.85;;;9.90;60.60;;;8.38;65.46;103021.94;8389312;28;20046;-81
2022/01/24 16:58:34;;;;;;;5.10;3.97;;;9.90;60.60;;;8.24;65.45;103003.84;8384807;28;20056;-81
2022/01/24 17:02:56;;;;;;;5.57;3.95;;;9.90;61.30;;;8.36;65.37;103027.16;8393415;28;20040;-81
2022/01/24 17:07:18;;;;;;;5.68;4.13;;;9.90;60.80;;;8.28;65.51;103013.34;8378293;28;20039;-80
2022/01/24 17:11:44;;;;;;;8.23;5.82;;;9.90;60.80;;;8.34;65.74;103023.69;8406499;28;20047;-81
2022/01/24 17:16:06;;;;;;;6.70;5.50;;;9.90;60.70;;;8.34;65.36;103020.22;8394455;28;20054;-81
2022/01/24 17:20:28;;;;;;;6.20;5.25;;;9.90;60.60;;;8.29;65.44;103011.59;8409120;28;20046;-80
2022/01/24 17:24:50;;;;;;;6.32;4.75;;;9.90;60.60;;;8.36;65.80;103024.53;8403511;28;20040;-81
2022/01/24 17:29:12;;;;;;;7.07;5.38;;;9.90;60.60;;;8.30;65.27;103011.59;8388353;28;20032;-81
2022/01/24 17:33:34;;;;;;;7.15;5.13;;;9.90;60.70;;;8.31;65.71;103017.66;8376932;28;20048;-80
2022/01/24 17:37:59;;;;;;;6.90;5.10;;;9.90;60.60;;;8.31;65.40;103026.31;8387937;28;20067;-80
2022/01/24 17:42:20;;;;;;;6.00;4.82;;;9.90;60.70;;;8.30;65.48;103010.72;8403981;28;20043;-81
2022/01/24 17:46:45;;;;;;;7.57;5.38;;;9.90;60.70;;;8.16;65.52;102984.81;8413703;28;20040;-81
2022/01/24 17:51:07;;;;;;;8.50;5.68;;;9.80;60.60;;;8.19;65.52;102984.78;8407083;28;20040;-80
2022/01/24 17:55:29;;;;;;;7.25;4.70;;;9.80;60.60;;;8.23;65.63;102996.88;8402979;28;20416;-80
2022/01/24 17:59:53;;;;;;;6.78;5.18;;;9.80;60.60;;;8.25;65.71;103000.34;8390095;28;20042;-80
2022/01/24 18:04:15;;;;;;;6.07;4.40;;;9.80;60.60;;;8.11;65.50;102977.06;8404578;28;20514;-80
2022/01/24 18:08:39;;;;;;;7.18;5.13;;;9.80;60.60;;;8.19;65.69;102996.06;8397893;28;20488;-80
2022/01/24 18:13:01;;;;;;;6.95;5.28;;;9.80;60.60;;;8.20;65.59;102986.50;8397837;28;20088;-80
2022/01/24 18:17:24;;;;;;;5.63;4.45;;;9.80;60.70;;;8.18;65.15;102985.66;8377496;28;20747;-81
2022/01/24 18:21:45;;;;;;;8.98;6.05;;;9.80;60.70;;;8.17;65.41;102976.13;8390919;28;20035;-80
2022/01/24 18:26:10;;;;;;;7.82;6.07;;;9.70;60.60;;;8.22;65.43;102983.91;8405636;28;20036;-80
2022/01/24 18:30:32;;;;;;;7.88;5.70;;;9.80;60.80;;;8.23;65.33;102989.09;8405802;28;20042;-80
2022/01/24 18:34:56;;;;;;;8.63;6.18;;;9.80;60.70;;;8.10;65.64;102967.53;8404518;28;20039;-80
2022/01/24 18:39:18;;;;;;;9.35;6.57;;;9.70;60.60;;;8.10;65.55;102972.72;8381525;28;20036;-80
2022/01/24 18:43:39;;;;;;;9.38;6.80;;;9.80;60.70;;;8.13;65.40;102964.03;8410466;28;20032;-81
2022/01/24 18:48:01;;;;;;;14.15;8.95;;;9.80;60.70;;;8.14;65.51;102978.75;8404687;28;20029;-81
2022/01/24 18:52:23;;;;;;;11.52;8.18;;;9.80;60.60;;;8.16;65.79;102979.63;8385939;28;20054;-80
2022/01/24 18:56:45;;;;;;;11.00;7.75;;;9.70;60.50;;;8.15;65.68;102983.06;8401846;28;20261;-80
2022/01/24 19:01:07;;;;;;;9.35;6.78;;;9.80;60.70;;;8.19;65.67;102985.66;8412963;28;20043;-79
2022/01/24 19:05:30;;;;;;;9.23;6.60;;;9.80;60.70;;;8.20;65.58;102981.31;8397223;28;20490;-80
2022/01/24 19:09:52;;;;;;;10.90;6.88;;;9.80;60.60;;;8.11;65.36;102974.44;8404862;28;21381;-80
2022/01/24 19:14:14;;;;;;;9.73;6.43;;;9.80;60.70;;;8.12;65.58;102978.75;8395702;28;20031;-80
2022/01/24 19:18:46;;;;;;;8.05;5.88;;;9.70;60.70;;;8.02;65.39;102956.31;8403848;28;20046;-79
2022/01/24 19:23:18;;;;;;;8.90;6.13;;;9.70;60.60;;;8.17;65.63;102989.16;8399024;28;20043;-80
2022/01/24 19:27:42;;;;;;;9.55;6.03;;;9.70;60.60;;;8.06;65.48;102963.22;8405009;28;20036;-80
2022/01/24 19:32:05;;;;;;;8.27;5.82;;;9.70;60.60;;;8.09;65.63;102975.34;8372294;28;20045;-79
2022/01/24 19:36:29;;;;;;;10.60;7.13;;;9.70;60.60;;;8.10;65.39;102979.66;8381064;28;20032;-80
2022/01/24 19:40:51;;;;;;;8.27;5.95;;;9.70;60.70;;;8.14;65.54;102986.56;8399986;28;20037;-80
2022/01/24 19:45:13;;;;;;;9.10;6.32;;;9.70;60.70;;;8.09;65.56;102983.16;8403614;28;20036;-80
2022/01/24 19:49:35;;;;;;;5.63;4.88;;;9.50;60.50;;;8.06;65.71;102985.78;8409715;28;20046;-81
2022/01/24 19:53:58;;;;;;;9.15;6.53;;;9.70;60.80;;;7.95;65.34;102968.50;8397809;28;20035;-79
2022/01/24 19:58:27;;;;;;;10.68;6.68;;;9.70;60.80;;;8.05;65.53;102986.66;8397109;28;20046;-79
2022/01/24 20:02:49;;;;;;;10.43;6.47;;;9.60;60.80;;;8.09;65.89;102989.19;8395674;28;20032;-79
2022/01/24 20:07:13;;;;;;;8.88;6.65;;;9.60;60.80;;;8.01;65.54;102962.38;8397083;28;20047;-79
2022/01/24 20:11:35;;;;;;;9.40;6.53;;;9.60;60.80;;;7.95;65.86;102955.50;8393667;28;20044;-79
2022/01/24 20:15:57;;;;;;;9.13;6.65;;;9.60;60.90;;;7.94;65.53;102951.19;8404745;28;20042;-79
2022/01/24 20:20:21;;;;;;;8.95;6.22;;;9.50;60.80;;;7.98;65.68;102960.66;8398722;28;20511;-80
2022/01/24 20:24:43;;;;;;;9.98;7.35;;;9.60;61.60;;;8.08;65.73;102971.03;8413639;28;20480;-80
2022/01/24 20:29:05;;;;;;;8.57;6.32;;;9.50;60.80;;;8.06;65.45;102975.38;8388339;28;20044;-79
2022/01/24 20:33:27;;;;;;;10.23;6.07;;;9.60;60.80;;;7.97;65.72;102974.56;8419138;28;20028;-80
2022/01/24 20:37:50;;;;;;;9.75;6.97;;;9.60;60.90;;;8.02;65.63;102986.66;8394439;28;20046;-80
2022/01/24 20:42:11;;;;;;;8.38;5.88;;;9.60;60.90;;;7.84;65.55;102957.31;8384711;28;20040;-80
2022/01/24 20:46:33;;;;;;;10.93;6.75;;;9.60;60.90;;;7.95;65.48;102984.13;8411791;28;20042;-80
2022/01/24 20:50:56;;;;;;;10.38;6.43;;;9.60;61.00;;;7.94;65.87;102979.78;8410671;27;20036;-80